createdAt,value
2018-08-27T00:01:08.602Z,2.30
2018-08-27T00:03:37.209Z,1.30
2018-08-27T00:06:05.785Z,1.70
2018-08-27T00:08:34.367Z,0.80
2018-08-27T00:11:02.916Z,1.60
2018-08-27T00:13:31.471Z,4.23
2018-08-27T00:16:00.035Z,2.20
2018-08-27T00:18:28.659Z,3.63
2018-08-27T00:20:57.153Z,7.80
2018-08-27T00:23:25.758Z,2.00
2018-08-27T00:25:54.255Z,1.20
2018-08-27T00:28:22.783Z,1.37
2018-08-27T00:30:51.320Z,2.63
2018-08-27T00:33:19.862Z,2.73
2018-08-27T00:35:48.419Z,1.67
2018-08-27T00:38:17.249Z,1.47
2018-08-27T00:40:45.764Z,1.00
2018-08-27T00:43:14.278Z,3.70
2018-08-27T00:45:42.843Z,1.00
2018-08-27T00:48:11.584Z,2.23
2018-08-27T00:50:40.152Z,2.20
2018-08-27T00:53:08.730Z,2.97
2018-08-27T00:55:37.242Z,1.80
2018-08-27T00:58:05.831Z,1.47
2018-08-27T01:00:34.425Z,1.40
2018-08-27T01:03:02.954Z,2.20
2018-08-27T01:05:31.504Z,2.13
2018-08-27T01:07:59.994Z,2.33
2018-08-27T01:10:28.556Z,1.23
2018-08-27T01:12:57.056Z,1.30
2018-08-27T01:15:25.605Z,1.77
2018-08-27T01:17:54.162Z,1.83
2018-08-27T01:20:22.751Z,1.60
2018-08-27T01:22:51.237Z,1.37
2018-08-27T01:25:19.815Z,1.23
2018-08-27T01:27:48.358Z,5.37
2018-08-27T01:30:16.941Z,1.50
2018-08-27T01:32:45.454Z,2.60
2018-08-27T01:35:13.994Z,1.30
2018-08-27T01:37:42.539Z,1.30
2018-08-27T01:40:11.467Z,1.50
2018-08-27T01:42:40.087Z,1.20
2018-08-27T01:45:08.638Z,2.07
2018-08-27T01:47:37.153Z,5.90
2018-08-27T01:50:06.057Z,4.97
2018-08-27T01:52:34.582Z,2.00
2018-08-27T01:55:03.099Z,2.20
2018-08-27T01:57:31.634Z,1.10
2018-08-27T02:00:00.113Z,3.30
2018-08-27T02:02:28.662Z,1.20
2018-08-27T02:04:57.196Z,2.60
2018-08-27T02:07:25.748Z,1.33
2018-08-27T02:09:54.246Z,2.60
2018-08-27T02:12:22.789Z,1.53
2018-08-27T02:14:51.270Z,1.37
2018-08-27T02:17:19.818Z,4.73
2018-08-27T02:19:48.410Z,4.10
2018-08-27T02:22:16.936Z,3.63
2018-08-27T02:24:45.454Z,0.93
2018-08-27T02:27:13.991Z,1.27
2018-08-27T02:29:42.497Z,2.13
2018-08-27T02:32:11.023Z,4.50
2018-08-27T02:34:39.579Z,1.47
2018-08-27T02:37:08.158Z,1.50
2018-08-27T02:39:36.679Z,1.20
2018-08-27T02:42:05.242Z,2.20
2018-08-27T02:44:33.898Z,1.27
2018-08-27T02:47:02.411Z,3.63
2018-08-27T02:49:31.056Z,1.90
2018-08-27T02:51:59.641Z,3.80
2018-08-27T02:54:28.161Z,3.83
2018-08-27T02:56:56.651Z,9.60
2018-08-27T02:59:25.186Z,1.37
2018-08-27T03:01:53.798Z,1.57
2018-08-27T03:04:22.392Z,1.27
2018-08-27T03:06:50.983Z,2.07
2018-08-27T03:09:19.529Z,2.17
2018-08-27T03:11:48.026Z,1.20
2018-08-27T03:14:16.575Z,1.40
2018-08-27T03:16:45.093Z,2.70
2018-08-27T03:19:13.673Z,1.97
2018-08-27T03:21:42.171Z,1.50
2018-08-27T03:24:10.744Z,1.90
2018-08-27T03:26:39.284Z,1.73
2018-08-27T03:29:07.923Z,1.60
2018-08-27T03:31:36.495Z,1.67
2018-08-27T03:34:05.122Z,1.47
2018-08-27T03:36:33.691Z,1.60
2018-08-27T03:39:02.255Z,1.37
2018-08-27T03:41:30.796Z,4.63
2018-08-27T03:43:59.286Z,3.43
2018-08-27T03:46:27.991Z,1.73
2018-08-27T03:48:56.490Z,1.43
2018-08-27T03:51:25.034Z,4.87
2018-08-27T03:53:53.552Z,2.20
2018-08-27T03:56:22.131Z,2.10
2018-08-27T03:58:50.636Z,1.70
2018-08-27T04:01:19.201Z,3.80
2018-08-27T04:03:47.695Z,3.97
2018-08-27T04:06:16.267Z,9.53
2018-08-27T04:08:44.802Z,9.47
2018-08-27T04:11:13.348Z,1.47
2018-08-27T04:13:41.851Z,4.50
2018-08-27T04:16:10.338Z,1.70
2018-08-27T04:18:38.850Z,2.63
2018-08-27T04:21:07.416Z,5.40
2018-08-27T04:23:35.989Z,2.97
2018-08-27T04:26:04.677Z,2.17
2018-08-27T04:28:33.310Z,3.33
2018-08-27T04:31:01.804Z,2.93
2018-08-27T04:33:30.348Z,1.90
2018-08-27T04:35:58.898Z,2.20
2018-08-27T04:38:27.451Z,2.70
2018-08-27T04:40:56.074Z,2.00
2018-08-27T04:43:24.599Z,1.83
2018-08-27T04:45:53.098Z,3.70
2018-08-27T04:48:21.656Z,1.63
2018-08-27T04:50:50.277Z,1.87
2018-08-27T04:53:18.829Z,2.93
2018-08-27T04:55:47.346Z,2.13
2018-08-27T04:58:15.889Z,3.37
2018-08-27T05:00:44.442Z,2.47
2018-08-27T05:03:13.021Z,3.40
2018-08-27T05:05:41.537Z,1.63
2018-08-27T05:08:10.107Z,3.10
2018-08-27T05:10:38.632Z,2.27
2018-08-27T05:13:07.275Z,1.60
2018-08-27T05:15:35.814Z,5.23
2018-08-27T05:18:04.413Z,1.63
2018-08-27T05:20:33.054Z,2.50
2018-08-27T05:23:01.596Z,6.17
2018-08-27T05:25:30.137Z,2.10
2018-08-27T05:27:58.655Z,2.00
2018-08-27T05:30:27.193Z,1.87
2018-08-27T05:32:55.700Z,1.90
2018-08-27T05:35:24.238Z,3.70
2018-08-27T05:37:52.771Z,2.50
2018-08-27T05:40:21.386Z,3.80
2018-08-27T05:42:49.906Z,2.90
2018-08-27T05:45:18.490Z,3.73
2018-08-27T05:47:47.054Z,3.67
2018-08-27T05:50:15.505Z,3.20
2018-08-27T05:52:44.034Z,1.90
2018-08-27T05:55:12.599Z,2.60
2018-08-27T05:57:41.160Z,1.57
2018-08-27T06:00:09.823Z,2.50
2018-08-27T06:02:38.398Z,1.97
2018-08-27T06:05:06.962Z,2.40
2018-08-27T06:07:35.462Z,1.63
2018-08-27T06:10:04.290Z,1.30
2018-08-27T06:12:32.820Z,4.97
2018-08-27T06:15:01.403Z,1.53
2018-08-27T06:17:29.918Z,3.63
2018-08-27T06:19:58.475Z,1.50
2018-08-27T06:22:27.148Z,4.20
2018-08-27T06:24:55.694Z,3.47
2018-08-27T06:27:24.234Z,1.63
2018-08-27T06:29:52.725Z,1.60
2018-08-27T06:32:21.302Z,1.50
2018-08-27T06:34:49.913Z,1.03
2018-08-27T06:37:18.498Z,1.23
2018-08-27T06:39:47.013Z,1.20
2018-08-27T06:42:15.642Z,1.50
2018-08-27T06:44:44.229Z,4.40
2018-08-27T06:47:13.053Z,4.77
2018-08-27T06:49:41.604Z,1.63
2018-08-27T06:52:10.178Z,2.30
2018-08-27T06:54:38.766Z,1.30
2018-08-27T06:57:07.334Z,1.00
2018-08-27T06:59:35.880Z,1.10
2018-08-27T07:02:04.543Z,1.67
2018-08-27T07:04:33.158Z,1.30
2018-08-27T07:07:01.734Z,0.93
2018-08-27T07:09:30.423Z,1.10
2018-08-27T07:11:58.999Z,4.13
2018-08-27T07:14:27.507Z,2.43
2018-08-27T07:16:56.231Z,1.50
2018-08-27T07:19:24.806Z,1.00
2018-08-27T07:21:53.407Z,0.97
2018-08-27T07:24:21.987Z,1.37
2018-08-27T07:26:50.585Z,1.17
2018-08-27T07:29:19.167Z,1.73
2018-08-27T07:31:47.862Z,1.20
2018-08-27T07:34:16.514Z,1.83
2018-08-27T07:36:45.383Z,1.37
2018-08-27T07:39:13.910Z,2.17
2018-08-27T07:41:42.462Z,1.07
2018-08-27T07:44:11.115Z,1.00
2018-08-27T07:46:39.647Z,3.30
2018-08-27T07:49:08.241Z,2.07
2018-08-27T07:51:36.753Z,1.60
2018-08-27T07:54:05.396Z,1.00
2018-08-27T07:56:33.942Z,1.20
2018-08-27T07:59:02.535Z,1.07
2018-08-27T08:01:31.165Z,0.67
2018-08-27T08:03:59.800Z,2.80
2018-08-27T08:06:28.329Z,1.37
2018-08-27T08:08:57.044Z,1.30
2018-08-27T08:11:25.625Z,0.83
2018-08-27T08:13:54.145Z,0.90
2018-08-27T08:16:22.754Z,0.70
2018-08-27T08:18:51.306Z,0.83
2018-08-27T08:21:19.895Z,0.60
2018-08-27T08:23:48.574Z,1.07
2018-08-27T08:26:17.123Z,1.50
2018-08-27T08:28:46.049Z,0.57
2018-08-27T08:31:15.734Z,4.23
2018-08-27T08:33:44.274Z,5.23
2018-08-27T08:36:12.882Z,0.70
2018-08-27T08:38:41.375Z,0.70
2018-08-27T08:41:10.022Z,0.63
2018-08-27T08:43:38.522Z,0.50
2018-08-27T08:46:07.054Z,0.77
2018-08-27T08:48:35.556Z,0.80
2018-08-27T08:51:04.102Z,0.60
2018-08-27T08:53:32.667Z,0.73
2018-08-27T08:56:01.148Z,0.73
2018-08-27T08:58:29.664Z,0.67
2018-08-27T09:00:58.219Z,0.90
2018-08-27T09:03:26.873Z,0.60
2018-08-27T09:05:55.400Z,1.70
2018-08-27T09:08:23.974Z,0.50
2018-08-27T09:10:52.653Z,0.73
2018-08-27T09:13:21.149Z,0.70
2018-08-27T09:15:49.685Z,0.73
2018-08-27T09:18:18.223Z,1.23
2018-08-27T09:20:47.722Z,0.57
2018-08-27T09:23:16.653Z,0.50
2018-08-27T09:25:45.265Z,0.60
2018-08-27T09:28:13.780Z,0.80
2018-08-27T09:30:42.402Z,0.50
2018-08-27T09:33:11.357Z,0.80
2018-08-27T09:35:40.151Z,0.50
2018-08-27T09:38:09.089Z,0.70
2018-08-27T09:40:37.654Z,1.83
2018-08-27T09:43:06.198Z,0.50
2018-08-27T09:45:34.792Z,1.07
2018-08-27T09:48:03.687Z,0.70
2018-08-27T09:50:32.322Z,0.87
2018-08-27T09:53:01.002Z,0.90
2018-08-27T09:55:29.519Z,0.70
2018-08-27T09:57:58.242Z,0.80
2018-08-27T10:00:32.174Z,3.60
2018-08-27T10:03:00.739Z,0.90
2018-08-27T10:05:29.353Z,1.50
2018-08-27T10:07:57.855Z,2.00
2018-08-27T10:10:26.398Z,1.77
2018-08-27T10:12:54.929Z,1.87
2018-08-27T10:15:23.506Z,0.90
2018-08-27T10:17:52.018Z,0.80
2018-08-27T10:20:20.593Z,0.53
2018-08-27T10:22:49.137Z,0.80
2018-08-27T10:25:17.886Z,0.70
2018-08-27T10:27:46.412Z,0.40
2018-08-27T10:30:14.948Z,0.97
2018-08-27T10:32:43.490Z,2.00
2018-08-27T10:35:12.075Z,1.10
2018-08-27T10:37:40.610Z,1.50
2018-08-27T10:40:09.174Z,1.20
2018-08-27T10:42:37.692Z,1.03
2018-08-27T10:45:06.724Z,1.10
2018-08-27T10:47:35.275Z,1.43
2018-08-27T10:50:03.921Z,2.00
2018-08-27T10:52:32.431Z,1.00
2018-08-27T10:55:01.087Z,1.30
2018-08-27T10:57:29.577Z,4.23
2018-08-27T10:59:58.141Z,2.60
2018-08-27T11:02:26.646Z,1.50
2018-08-27T11:04:55.265Z,1.30
2018-08-27T11:07:24.999Z,5.03
2018-08-27T11:09:55.384Z,1.73
2018-08-27T11:12:25.436Z,2.67
2018-08-27T11:14:54.062Z,1.87
2018-08-27T11:17:23.325Z,1.60
2018-08-27T11:19:52.241Z,2.23
2018-08-27T11:22:20.739Z,4.13
2018-08-27T11:24:49.279Z,3.00
2018-08-27T11:27:17.802Z,3.10
2018-08-27T11:29:46.414Z,5.03
2018-08-27T11:32:15.025Z,4.90
2018-08-27T11:34:43.597Z,2.77
2018-08-27T11:37:12.687Z,4.53
2018-08-27T11:39:41.234Z,4.90
2018-08-27T11:42:09.830Z,5.27
2018-08-27T11:44:38.352Z,11.73
2018-08-27T11:47:06.982Z,7.27
2018-08-27T11:49:35.525Z,6.70
2018-08-27T11:52:04.129Z,4.30
2018-08-27T11:54:32.663Z,6.30
2018-08-27T11:57:01.293Z,8.00
2018-08-27T11:59:29.830Z,10.50
2018-08-27T12:01:58.490Z,6.73
2018-08-27T12:04:27.215Z,8.33
2018-08-27T12:06:55.837Z,11.93
2018-08-27T12:09:24.422Z,9.73
2018-08-27T12:11:52.979Z,9.87
2018-08-27T12:14:21.687Z,16.73
2018-08-27T12:16:50.278Z,8.50
2018-08-27T12:19:18.807Z,10.10
2018-08-27T12:21:47.408Z,10.20
2018-08-27T12:24:15.994Z,11.63
2018-08-27T12:26:44.513Z,11.03
2018-08-27T12:29:13.092Z,8.40
2018-08-27T12:31:41.667Z,9.90
2018-08-27T12:34:10.235Z,9.90
2018-08-27T12:36:38.802Z,9.23
2018-08-27T12:39:09.213Z,14.60
2018-08-27T12:41:37.830Z,9.73
2018-08-27T12:44:06.428Z,8.67
2018-08-27T12:46:35.003Z,12.50
2018-08-27T12:49:03.547Z,8.37
2018-08-27T12:51:32.094Z,7.03
2018-08-27T12:54:00.605Z,8.50
2018-08-27T12:56:29.196Z,8.27
2018-08-27T12:58:57.789Z,9.07
2018-08-27T13:01:26.276Z,6.83
2018-08-27T13:03:54.913Z,10.40
2018-08-27T13:06:23.457Z,7.57
2018-08-27T13:08:52.085Z,10.30
2018-08-27T13:11:20.745Z,7.17
2018-08-27T13:13:49.236Z,4.30
2018-08-27T13:16:17.765Z,6.97
2018-08-27T13:18:46.270Z,8.00
2018-08-27T13:21:20.058Z,10.10
2018-08-27T13:23:48.693Z,9.17
2018-08-27T13:26:17.157Z,7.73
2018-08-27T13:28:45.703Z,14.37
2018-08-27T13:31:14.366Z,10.30
2018-08-27T13:33:43.435Z,9.27
2018-08-27T13:36:12.298Z,10.53
2018-08-27T13:38:40.880Z,10.63
2018-08-27T13:41:09.542Z,8.73
2018-08-27T13:43:38.093Z,10.67
2018-08-27T13:46:06.665Z,5.10
2018-08-27T13:48:35.278Z,6.87
2018-08-27T13:51:03.999Z,9.87
2018-08-27T13:53:32.551Z,12.10
2018-08-27T13:56:01.177Z,6.57
2018-08-27T13:58:29.666Z,7.20
2018-08-27T14:00:58.242Z,5.20
2018-08-27T14:03:26.951Z,10.03
2018-08-27T14:05:55.562Z,7.77
2018-08-27T14:08:24.112Z,6.37
2018-08-27T14:10:52.744Z,10.90
2018-08-27T14:13:21.183Z,7.97
2018-08-27T14:15:49.781Z,4.17
2018-08-27T14:18:18.253Z,12.27
2018-08-27T14:20:46.843Z,8.93
2018-08-27T14:23:15.352Z,12.43
2018-08-27T14:25:43.877Z,5.80
2018-08-27T14:28:12.443Z,7.20
2018-08-27T14:30:41.094Z,10.40
2018-08-27T14:33:09.627Z,9.37
2018-08-27T14:35:38.248Z,7.23
2018-08-27T14:38:06.874Z,7.00
2018-08-27T14:40:35.446Z,9.63
2018-08-27T14:43:04.073Z,9.17
2018-08-27T14:45:32.621Z,7.47
2018-08-27T14:48:01.241Z,6.93
2018-08-27T14:50:29.747Z,7.27
2018-08-27T14:52:58.381Z,10.53
2018-08-27T14:55:26.955Z,5.17
2018-08-27T14:57:55.499Z,7.33
2018-08-27T15:00:24.147Z,5.87
2018-08-27T15:02:52.650Z,6.03
2018-08-27T15:05:21.286Z,6.30
2018-08-27T15:07:49.908Z,8.47
2018-08-27T15:10:18.507Z,6.63
2018-08-27T15:12:47.109Z,18.10
2018-08-27T15:15:15.696Z,8.90
2018-08-27T15:17:44.463Z,12.50
2018-08-27T15:20:13.037Z,7.13
2018-08-27T15:22:41.739Z,13.63
2018-08-27T15:25:10.293Z,12.60
2018-08-27T15:27:38.845Z,12.90
2018-08-27T15:30:07.476Z,8.80
2018-08-27T15:32:36.020Z,8.20
2018-08-27T15:35:04.623Z,8.30
2018-08-27T15:37:33.896Z,13.97
2018-08-27T15:40:02.503Z,6.83
2018-08-27T15:42:31.006Z,5.90
2018-08-27T15:45:03.834Z,8.97
2018-08-27T15:47:32.347Z,6.60
2018-08-27T15:50:00.970Z,12.37
2018-08-27T15:52:29.468Z,5.70
2018-08-27T15:54:58.048Z,7.67
2018-08-27T15:57:26.656Z,9.80
2018-08-27T15:59:55.090Z,13.37
2018-08-27T16:02:23.635Z,13.50
2018-08-27T16:04:52.201Z,12.73
2018-08-27T16:07:20.720Z,10.57
2018-08-27T16:09:49.670Z,12.87
2018-08-27T16:12:18.178Z,15.13
2018-08-27T16:14:46.714Z,18.43
2018-08-27T16:17:15.326Z,22.17
2018-08-27T16:19:43.917Z,13.70
2018-08-27T16:22:12.858Z,11.93
2018-08-27T16:24:41.406Z,8.50
2018-08-27T16:27:09.914Z,10.00
2018-08-27T16:29:38.836Z,12.97
2018-08-27T16:32:08.260Z,9.80
2018-08-27T16:34:36.787Z,11.33
2018-08-27T16:37:05.472Z,13.23
2018-08-27T16:39:34.035Z,16.90
2018-08-27T16:42:02.999Z,14.20
2018-08-27T16:44:31.561Z,10.43
2018-08-27T16:47:00.132Z,8.10
2018-08-27T16:49:28.767Z,14.97
2018-08-27T16:51:57.343Z,16.83
2018-08-27T16:54:25.846Z,11.27
2018-08-27T16:56:54.487Z,16.03
2018-08-27T16:59:23.017Z,10.70
2018-08-27T17:01:51.546Z,10.83
2018-08-27T17:04:20.124Z,12.50
2018-08-27T17:06:49.078Z,11.90
2018-08-27T17:09:17.623Z,16.73
2018-08-27T17:11:46.186Z,17.03
2018-08-27T17:14:14.709Z,9.70
2018-08-27T17:16:43.287Z,17.97
2018-08-27T17:19:12.413Z,10.63
2018-08-27T17:21:40.969Z,13.90
2018-08-27T17:24:09.652Z,14.50
2018-08-27T17:26:38.260Z,10.63
2018-08-27T17:29:06.870Z,13.30
2018-08-27T17:31:35.396Z,10.57
2018-08-27T17:34:04.027Z,9.33
2018-08-27T17:36:32.666Z,10.53
2018-08-27T17:39:01.162Z,16.93
2018-08-27T17:41:29.718Z,13.57
2018-08-27T17:43:58.270Z,12.03
2018-08-27T17:46:26.858Z,18.77
2018-08-27T17:48:55.463Z,11.37
2018-08-27T17:51:24.178Z,19.63
2018-08-27T17:53:53.018Z,16.60
2018-08-27T17:56:22.171Z,12.30
2018-08-27T17:58:51.382Z,16.60
2018-08-27T18:01:20.669Z,13.57
2018-08-27T18:03:49.362Z,8.70
2018-08-27T18:06:18.377Z,10.43
2018-08-27T18:08:47.269Z,11.00
2018-08-27T18:11:16.273Z,13.57
2018-08-27T18:13:44.966Z,13.47
2018-08-27T18:16:13.571Z,9.63
2018-08-27T18:18:42.147Z,9.17
2018-08-27T18:21:10.760Z,12.50
2018-08-27T18:23:39.333Z,15.90
2018-08-27T18:26:07.903Z,12.23
2018-08-27T18:28:36.503Z,17.10
2018-08-27T18:31:05.035Z,6.10
2018-08-27T18:33:33.566Z,12.37
2018-08-27T18:36:02.115Z,14.30
2018-08-27T18:38:30.703Z,11.40
2018-08-27T18:40:59.239Z,8.67
2018-08-27T18:43:27.793Z,15.60
2018-08-27T18:45:56.340Z,16.67
2018-08-27T18:48:24.874Z,18.40
2018-08-27T18:50:53.533Z,11.83
2018-08-27T18:53:22.198Z,13.87
2018-08-27T18:55:50.829Z,17.50
2018-08-27T18:58:19.350Z,7.70
2018-08-27T19:00:47.934Z,17.57
2018-08-27T19:03:16.568Z,14.30
2018-08-27T19:05:45.174Z,9.60
2018-08-27T19:08:15.154Z,14.67
2018-08-27T19:10:44.485Z,13.23
2018-08-27T19:13:13.079Z,16.23
2018-08-27T19:15:41.627Z,11.60
2018-08-27T19:18:10.164Z,17.83
2018-08-27T19:20:38.828Z,19.97
2018-08-27T19:23:07.539Z,14.07
2018-08-27T19:25:36.075Z,16.13
2018-08-27T19:28:04.711Z,12.57
2018-08-27T19:30:33.447Z,13.33
2018-08-27T19:33:02.178Z,15.80
2018-08-27T19:35:31.872Z,15.87
2018-08-27T19:38:00.269Z,15.90
2018-08-27T19:40:28.961Z,9.57
2018-08-27T19:42:57.551Z,9.90
2018-08-27T19:45:26.033Z,13.17
2018-08-27T19:47:54.621Z,13.00
2018-08-27T19:50:23.167Z,14.00
2018-08-27T19:52:51.712Z,12.13
2018-08-27T19:55:20.415Z,18.60
2018-08-27T19:57:48.957Z,11.30
2018-08-27T20:00:17.515Z,15.47
2018-08-27T20:02:46.066Z,21.67
2018-08-27T20:05:14.585Z,12.10
2018-08-27T20:07:43.104Z,11.50
2018-08-27T20:10:11.879Z,10.10
2018-08-27T20:12:40.449Z,11.00
2018-08-27T20:15:08.986Z,15.60
2018-08-27T20:17:37.493Z,18.90
2018-08-27T20:20:06.124Z,14.90
2018-08-27T20:22:34.618Z,18.17
2018-08-27T20:25:03.152Z,18.33
2018-08-27T20:27:31.699Z,13.60
2018-08-27T20:30:00.259Z,11.27
2018-08-27T20:32:28.750Z,17.47
2018-08-27T20:34:57.375Z,11.77
2018-08-27T20:37:25.959Z,17.20
2018-08-27T20:39:54.458Z,12.40
2018-08-27T20:42:23.022Z,15.43
2018-08-27T20:44:51.532Z,11.77
2018-08-27T20:47:20.121Z,14.40
2018-08-27T20:49:48.703Z,15.00
2018-08-27T20:52:17.279Z,15.27
2018-08-27T20:54:45.790Z,17.90
2018-08-27T20:57:14.383Z,16.80
2018-08-27T20:59:42.843Z,10.87
2018-08-27T21:02:11.405Z,15.23
2018-08-27T21:04:39.906Z,11.30
2018-08-27T21:07:08.454Z,11.87
2018-08-27T21:09:37.027Z,12.07
2018-08-27T21:12:06.157Z,16.27
2018-08-27T21:15:12.908Z,13.80
2018-08-27T21:17:42.766Z,14.57
2018-08-27T21:20:12.118Z,16.83
2018-08-27T21:22:40.734Z,19.13
2018-08-27T21:25:16.530Z,13.63
2018-08-27T21:27:46.203Z,19.93
2018-08-27T21:30:16.804Z,22.27
2018-08-27T21:32:45.380Z,17.20
2018-08-27T21:35:13.955Z,13.43
2018-08-27T21:37:42.539Z,11.87
2018-08-27T21:40:11.079Z,19.23
2018-08-27T21:42:39.685Z,19.23
2018-08-27T21:45:08.302Z,19.53
2018-08-27T21:47:36.839Z,14.23
2018-08-27T21:50:05.447Z,12.40
2018-08-27T21:52:33.995Z,14.13
2018-08-27T21:55:02.619Z,13.17
2018-08-27T21:57:31.099Z,18.30
2018-08-27T21:59:59.671Z,13.67
2018-08-27T22:02:33.408Z,10.63
2018-08-27T22:05:02.075Z,13.17
2018-08-27T22:07:30.675Z,16.93
2018-08-27T22:09:59.195Z,16.23
2018-08-27T22:12:27.714Z,12.53
2018-08-27T22:14:56.220Z,11.50
2018-08-27T22:17:24.796Z,14.83
2018-08-27T22:19:53.289Z,12.50
2018-08-27T22:22:21.826Z,16.40
2018-08-27T22:24:50.475Z,18.20
2018-08-27T22:27:19.064Z,17.73
2018-08-27T22:29:47.660Z,18.33
2018-08-27T22:32:16.199Z,10.77
2018-08-27T22:34:44.792Z,12.50
2018-08-27T22:37:13.350Z,22.10
2018-08-27T22:39:41.854Z,14.40
2018-08-27T22:42:10.429Z,14.07
2018-08-27T22:44:38.954Z,15.30
2018-08-27T22:47:10.068Z,13.37
2018-08-27T22:49:39.541Z,15.87
2018-08-27T22:52:08.202Z,17.00
2018-08-27T22:54:36.831Z,15.23
2018-08-27T22:57:05.630Z,16.60
2018-08-27T22:59:34.142Z,8.90
2018-08-27T23:02:02.699Z,12.80
2018-08-27T23:04:36.531Z,14.20
2018-08-27T23:07:05.145Z,12.47
2018-08-27T23:09:33.790Z,13.73
2018-08-27T23:12:02.649Z,15.10
2018-08-27T23:14:31.159Z,15.83
2018-08-27T23:16:59.727Z,12.23
2018-08-27T23:19:28.243Z,16.33
2018-08-27T23:21:56.809Z,18.77
2018-08-27T23:24:25.357Z,15.23
2018-08-27T23:26:53.906Z,17.37
2018-08-27T23:29:22.410Z,19.77
2018-08-27T23:31:50.931Z,18.33
2018-08-27T23:34:19.467Z,14.27
2018-08-27T23:36:48.042Z,10.87
2018-08-27T23:39:17.787Z,16.43
2018-08-27T23:41:46.362Z,18.97
2018-08-27T23:44:14.910Z,15.23
2018-08-27T23:46:43.452Z,10.87
2018-08-27T23:49:12.033Z,17.47
2018-08-27T23:51:40.538Z,13.80
2018-08-27T23:54:15.615Z,13.43
2018-08-27T23:56:44.150Z,11.43
2018-08-27T23:59:12.708Z,12.60
